sensor_id;sensor_type;location;lat;lon;timestamp;temperature;humidity
28614;DHT22;15806;53.548;9.964;2023-10-09T00:00:17;12.40;99.90
28614;DHT22;15806;53.548;9.964;2023-10-09T00:01:57;12.40;99.90
28614;DHT22;15806;53.548;9.964;2023-10-09T00:03:38;12.40;99.90
28614;DHT22;15806;53.548;9.964;2023-10-09T00:05:19;12.40;99.90
28614;DHT22;15806;53.548;9.964;2023-10-09T00:06:59;12.40;99.90
28614;DHT22;15806;53.548;9.964;2023-10-09T00:08:40;12.40;99.90
28614;DHT22;15806;53.548;9.964;2023-10-09T00:10:20;12.40;99.90
28614;DHT22;15806;53.548;9.964;2023-10-09T00:12:01;12.40;99.90
28614;DHT22;15806;53.548;9.964;2023-10-09T00:13:46;12.40;99.90
28614;DHT22;15806;53.548;9.964;2023-10-09T00:15:26;12.40;99.90
28614;DHT22;15806;53.548;9.964;2023-10-09T00:17:07;12.20;99.90
28614;DHT22;15806;53.548;9.964;2023-10-09T00:18:47;12.20;99.90
28614;DHT22;15806;53.548;9.964;2023-10-09T00:20:28;12.20;99.90
28614;DHT22;15806;53.548;9.964;2023-10-09T00:22:09;12.20;99.90
28614;DHT22;15806;53.548;9.964;2023-10-09T00:23:50;12.20;99.90
28614;DHT22;15806;53.548;9.964;2023-10-09T00:25:30;12.20;99.90
28614;DHT22;15806;53.548;9.964;2023-10-09T00:27:11;12.20;99.90
28614;DHT22;15806;53.548;9.964;2023-10-09T00:28:51;12.10;99.90
28614;DHT22;15806;53.548;9.964;2023-10-09T00:30:32;12.00;99.90
28614;DHT22;15806;53.548;9.964;2023-10-09T00:32:13;12.00;99.90
28614;DHT22;15806;53.548;9.964;2023-10-09T00:33:54;12.00;99.90
28614;DHT22;15806;53.548;9.964;2023-10-09T00:35:38;12.00;99.90
28614;DHT22;15806;53.548;9.964;2023-10-09T00:37:19;12.10;99.90
28614;DHT22;15806;53.548;9.964;2023-10-09T00:39:00;12.10;99.90
28614;DHT22;15806;53.548;9.964;2023-10-09T00:40:41;12.10;99.90
28614;DHT22;15806;53.548;9.964;2023-10-09T00:42:22;12.20;99.90
28614;DHT22;15806;53.548;9.964;2023-10-09T00:44:02;12.20;99.90
28614;DHT22;15806;53.548;9.964;2023-10-09T00:45:44;12.30;99.90
28614;DHT22;15806;53.548;9.964;2023-10-09T00:47:24;12.30;99.90
28614;DHT22;15806;53.548;9.964;2023-10-09T00:49:05;12.40;99.90
28614;DHT22;15806;53.548;9.964;2023-10-09T00:50:46;12.40;99.90
28614;DHT22;15806;53.548;9.964;2023-10-09T00:52:33;12.40;99.90
28614;DHT22;15806;53.548;9.964;2023-10-09T00:54:15;12.50;99.90
28614;DHT22;15806;53.548;9.964;2023-10-09T00:55:56;12.40;99.90
28614;DHT22;15806;53.548;9.964;2023-10-09T00:57:37;12.50;99.90
28614;DHT22;15806;53.548;9.964;2023-10-09T00:59:19;12.50;99.90
28614;DHT22;15806;53.548;9.964;2023-10-09T01:01:00;12.70;99.90
28614;DHT22;15806;53.548;9.964;2023-10-09T01:02:40;12.70;99.90
28614;DHT22;15806;53.548;9.964;2023-10-09T01:04:21;12.70;99.90
28614;DHT22;15806;53.548;9.964;2023-10-09T01:06:02;12.70;99.90
28614;DHT22;15806;53.548;9.964;2023-10-09T01:07:43;12.70;99.90
28614;DHT22;15806;53.548;9.964;2023-10-09T01:09:23;12.70;99.90
28614;DHT22;15806;53.548;9.964;2023-10-09T01:11:04;12.70;99.90
28614;DHT22;15806;53.548;9.964;2023-10-09T01:12:44;12.70;99.90
28614;DHT22;15806;53.548;9.964;2023-10-09T01:14:25;12.80;99.90
28614;DHT22;15806;53.548;9.964;2023-10-09T01:16:06;12.90;99.90
28614;DHT22;15806;53.548;9.964;2023-10-09T01:17:47;13.00;99.90
28614;DHT22;15806;53.548;9.964;2023-10-09T01:19:27;13.10;99.90
28614;DHT22;15806;53.548;9.964;2023-10-09T01:21:08;13.10;99.90
28614;DHT22;15806;53.548;9.964;2023-10-09T01:22:48;13.10;99.90
28614;DHT22;15806;53.548;9.964;2023-10-09T01:24:29;13.10;99.90
28614;DHT22;15806;53.548;9.964;2023-10-09T01:26:09;13.10;99.90
28614;DHT22;15806;53.548;9.964;2023-10-09T01:27:50;13.00;99.90
28614;DHT22;15806;53.548;9.964;2023-10-09T01:29:30;13.00;99.90
28614;DHT22;15806;53.548;9.964;2023-10-09T01:31:11;12.90;99.90
28614;DHT22;15806;53.548;9.964;2023-10-09T01:32:51;12.90;99.90
28614;DHT22;15806;53.548;9.964;2023-10-09T01:34:33;12.90;99.90
28614;DHT22;15806;53.548;9.964;2023-10-09T01:36:14;12.90;99.90
28614;DHT22;15806;53.548;9.964;2023-10-09T01:37:54;13.00;99.90
28614;DHT22;15806;53.548;9.964;2023-10-09T01:39:34;13.10;99.90
28614;DHT22;15806;53.548;9.964;2023-10-09T01:41:15;13.10;99.90
28614;DHT22;15806;53.548;9.964;2023-10-09T01:42:55;13.00;99.90
28614;DHT22;15806;53.548;9.964;2023-10-09T01:44:36;13.10;99.90
28614;DHT22;15806;53.548;9.964;2023-10-09T01:46:17;13.20;99.90
28614;DHT22;15806;53.548;9.964;2023-10-09T01:47:57;13.30;99.90
28614;DHT22;15806;53.548;9.964;2023-10-09T01:49:38;13.40;99.90
28614;DHT22;15806;53.548;9.964;2023-10-09T01:51:18;13.50;99.90
28614;DHT22;15806;53.548;9.964;2023-10-09T01:52:59;13.30;99.90
28614;DHT22;15806;53.548;9.964;2023-10-09T01:54:39;13.10;99.90
28614;DHT22;15806;53.548;9.964;2023-10-09T01:56:20;13.30;99.90
28614;DHT22;15806;53.548;9.964;2023-10-09T01:58:02;13.00;99.90
28614;DHT22;15806;53.548;9.964;2023-10-09T01:59:44;12.90;99.90
28614;DHT22;15806;53.548;9.964;2023-10-09T02:01:25;13.00;99.90
28614;DHT22;15806;53.548;9.964;2023-10-09T02:03:05;12.90;99.90
28614;DHT22;15806;53.548;9.964;2023-10-09T02:04:46;12.90;99.90
28614;DHT22;15806;53.548;9.964;2023-10-09T02:06:26;13.00;99.90
28614;DHT22;15806;53.548;9.964;2023-10-09T02:08:07;13.00;99.90
28614;DHT22;15806;53.548;9.964;2023-10-09T02:09:47;13.00;99.90
28614;DHT22;15806;53.548;9.964;2023-10-09T02:11:28;13.00;99.90
28614;DHT22;15806;53.548;9.964;2023-10-09T02:13:08;12.90;99.90
28614;DHT22;15806;53.548;9.964;2023-10-09T02:14:49;12.90;99.90
28614;DHT22;15806;53.548;9.964;2023-10-09T02:16:30;12.80;99.90
28614;DHT22;15806;53.548;9.964;2023-10-09T02:18:21;12.80;99.90
28614;DHT22;15806;53.548;9.964;2023-10-09T02:20:02;12.70;99.90
28614;DHT22;15806;53.548;9.964;2023-10-09T02:21:42;12.70;99.90
28614;DHT22;15806;53.548;9.964;2023-10-09T02:23:23;12.70;99.90
28614;DHT22;15806;53.548;9.964;2023-10-09T02:25:03;12.60;99.90
28614;DHT22;15806;53.548;9.964;2023-10-09T02:26:44;12.50;99.90
28614;DHT22;15806;53.548;9.964;2023-10-09T02:28:24;12.40;99.90
28614;DHT22;15806;53.548;9.964;2023-10-09T02:30:06;12.40;99.90
28614;DHT22;15806;53.548;9.964;2023-10-09T02:31:46;12.50;99.90
28614;DHT22;15806;53.548;9.964;2023-10-09T02:33:28;12.50;99.90
28614;DHT22;15806;53.548;9.964;2023-10-09T02:35:11;12.50;99.90
28614;DHT22;15806;53.548;9.964;2023-10-09T02:36:52;12.40;99.90
28614;DHT22;15806;53.548;9.964;2023-10-09T02:38:35;12.40;99.90
28614;DHT22;15806;53.548;9.964;2023-10-09T02:40:16;12.50;99.90
28614;DHT22;15806;53.548;9.964;2023-10-09T02:41:57;12.60;99.90
28614;DHT22;15806;53.548;9.964;2023-10-09T02:43:37;12.60;99.90
28614;DHT22;15806;53.548;9.964;2023-10-09T02:45:18;12.60;99.90
28614;DHT22;15806;53.548;9.964;2023-10-09T02:46:58;12.60;99.90
28614;DHT22;15806;53.548;9.964;2023-10-09T02:48:39;12.50;99.90
28614;DHT22;15806;53.548;9.964;2023-10-09T02:50:19;12.50;99.90
28614;DHT22;15806;53.548;9.964;2023-10-09T02:52:00;12.50;99.90
28614;DHT22;15806;53.548;9.964;2023-10-09T02:53:40;12.50;99.90
28614;DHT22;15806;53.548;9.964;2023-10-09T02:55:21;12.40;99.90
28614;DHT22;15806;53.548;9.964;2023-10-09T02:57:01;12.30;99.90
28614;DHT22;15806;53.548;9.964;2023-10-09T02:58:42;12.30;99.90
28614;DHT22;15806;53.548;9.964;2023-10-09T03:00:22;12.20;99.90
28614;DHT22;15806;53.548;9.964;2023-10-09T03:02:03;12.20;99.90
28614;DHT22;15806;53.548;9.964;2023-10-09T03:03:43;12.10;99.90
28614;DHT22;15806;53.548;9.964;2023-10-09T03:05:24;12.10;99.90
28614;DHT22;15806;53.548;9.964;2023-10-09T03:07:05;12.10;99.90
28614;DHT22;15806;53.548;9.964;2023-10-09T03:08:45;12.10;99.90
28614;DHT22;15806;53.548;9.964;2023-10-09T03:10:26;12.10;99.90
28614;DHT22;15806;53.548;9.964;2023-10-09T03:12:07;12.00;99.90
28614;DHT22;15806;53.548;9.964;2023-10-09T03:13:47;12.00;99.90
28614;DHT22;15806;53.548;9.964;2023-10-09T03:15:28;12.00;99.90
28614;DHT22;15806;53.548;9.964;2023-10-09T03:17:08;12.00;99.90
28614;DHT22;15806;53.548;9.964;2023-10-09T03:18:52;11.90;99.90
28614;DHT22;15806;53.548;9.964;2023-10-09T03:20:33;11.90;99.90
28614;DHT22;15806;53.548;9.964;2023-10-09T03:22:13;11.90;99.90
28614;DHT22;15806;53.548;9.964;2023-10-09T03:23:54;11.90;99.90
28614;DHT22;15806;53.548;9.964;2023-10-09T03:25:34;11.80;99.90
28614;DHT22;15806;53.548;9.964;2023-10-09T03:27:15;11.70;99.90
28614;DHT22;15806;53.548;9.964;2023-10-09T03:28:55;11.70;99.90
28614;DHT22;15806;53.548;9.964;2023-10-09T03:30:36;11.70;99.90
28614;DHT22;15806;53.548;9.964;2023-10-09T03:32:16;11.60;99.90
28614;DHT22;15806;53.548;9.964;2023-10-09T03:33:57;11.60;99.90
28614;DHT22;15806;53.548;9.964;2023-10-09T03:35:37;11.60;99.90
28614;DHT22;15806;53.548;9.964;2023-10-09T03:37:18;11.60;99.90
28614;DHT22;15806;53.548;9.964;2023-10-09T03:38:58;11.50;99.90
28614;DHT22;15806;53.548;9.964;2023-10-09T03:40:43;11.50;99.90
28614;DHT22;15806;53.548;9.964;2023-10-09T03:42:23;11.50;99.90
28614;DHT22;15806;53.548;9.964;2023-10-09T03:44:04;11.60;99.90
28614;DHT22;15806;53.548;9.964;2023-10-09T03:45:45;11.50;99.90
28614;DHT22;15806;53.548;9.964;2023-10-09T03:47:25;11.40;99.90
28614;DHT22;15806;53.548;9.964;2023-10-09T03:49:06;11.40;99.90
28614;DHT22;15806;53.548;9.964;2023-10-09T03:50:47;11.30;99.90
28614;DHT22;15806;53.548;9.964;2023-10-09T03:52:27;11.40;99.90
28614;DHT22;15806;53.548;9.964;2023-10-09T03:54:08;11.50;99.90
28614;DHT22;15806;53.548;9.964;2023-10-09T03:55:48;11.50;99.90
28614;DHT22;15806;53.548;9.964;2023-10-09T03:57:29;11.50;99.90
28614;DHT22;15806;53.548;9.964;2023-10-09T03:59:09;11.60;99.90
28614;DHT22;15806;53.548;9.964;2023-10-09T04:00:50;11.50;99.90
28614;DHT22;15806;53.548;9.964;2023-10-09T04:02:30;11.50;99.90
28614;DHT22;15806;53.548;9.964;2023-10-09T04:04:11;11.50;99.90
28614;DHT22;15806;53.548;9.964;2023-10-09T04:05:51;11.50;99.90
28614;DHT22;15806;53.548;9.964;2023-10-09T04:07:32;11.50;99.90
28614;DHT22;15806;53.548;9.964;2023-10-09T04:09:12;11.60;99.90
28614;DHT22;15806;53.548;9.964;2023-10-09T04:10:53;11.40;99.90
28614;DHT22;15806;53.548;9.964;2023-10-09T04:12:34;11.40;99.90
28614;DHT22;15806;53.548;9.964;2023-10-09T04:14:14;11.50;99.90
28614;DHT22;15806;53.548;9.964;2023-10-09T04:15:55;11.40;99.90
28614;DHT22;15806;53.548;9.964;2023-10-09T04:17:35;11.40;99.90
28614;DHT22;15806;53.548;9.964;2023-10-09T04:19:16;11.30;99.90
28614;DHT22;15806;53.548;9.964;2023-10-09T04:20:57;11.30;99.90
28614;DHT22;15806;53.548;9.964;2023-10-09T04:22:38;11.30;99.90
28614;DHT22;15806;53.548;9.964;2023-10-09T04:24:18;11.40;99.90
28614;DHT22;15806;53.548;9.964;2023-10-09T04:25:59;11.40;99.90
28614;DHT22;15806;53.548;9.964;2023-10-09T04:27:39;11.50;99.90
28614;DHT22;15806;53.548;9.964;2023-10-09T04:29:20;11.60;99.90
28614;DHT22;15806;53.548;9.964;2023-10-09T04:31:00;11.50;99.90
28614;DHT22;15806;53.548;9.964;2023-10-09T04:32:41;11.50;99.90
28614;DHT22;15806;53.548;9.964;2023-10-09T04:34:26;11.60;99.90
28614;DHT22;15806;53.548;9.964;2023-10-09T04:36:08;11.50;99.90
28614;DHT22;15806;53.548;9.964;2023-10-09T04:37:49;11.50;99.90
28614;DHT22;15806;53.548;9.964;2023-10-09T04:39:29;11.50;99.90
28614;DHT22;15806;53.548;9.964;2023-10-09T04:41:10;11.50;99.90
28614;DHT22;15806;53.548;9.964;2023-10-09T04:42:50;11.60;99.90
28614;DHT22;15806;53.548;9.964;2023-10-09T04:44:31;11.70;99.90
28614;DHT22;15806;53.548;9.964;2023-10-09T04:46:11;11.80;99.90
28614;DHT22;15806;53.548;9.964;2023-10-09T04:47:52;11.80;99.90
28614;DHT22;15806;53.548;9.964;2023-10-09T04:49:33;11.80;99.90
28614;DHT22;15806;53.548;9.964;2023-10-09T04:51:14;11.70;99.90
28614;DHT22;15806;53.548;9.964;2023-10-09T04:52:55;11.60;99.90
28614;DHT22;15806;53.548;9.964;2023-10-09T04:54:35;11.60;99.90
28614;DHT22;15806;53.548;9.964;2023-10-09T04:56:16;11.70;99.90
28614;DHT22;15806;53.548;9.964;2023-10-09T04:57:57;11.70;99.90
28614;DHT22;15806;53.548;9.964;2023-10-09T04:59:37;11.70;99.90
28614;DHT22;15806;53.548;9.964;2023-10-09T05:01:18;11.70;99.90
28614;DHT22;15806;53.548;9.964;2023-10-09T05:03:00;11.60;99.90
28614;DHT22;15806;53.548;9.964;2023-10-09T05:04:40;11.70;99.90
28614;DHT22;15806;53.548;9.964;2023-10-09T05:06:21;11.80;99.90
28614;DHT22;15806;53.548;9.964;2023-10-09T05:08:01;11.80;99.90
28614;DHT22;15806;53.548;9.964;2023-10-09T05:09:42;11.80;99.90
28614;DHT22;15806;53.548;9.964;2023-10-09T05:11:23;11.90;99.90
28614;DHT22;15806;53.548;9.964;2023-10-09T05:13:03;12.00;99.90
28614;DHT22;15806;53.548;9.964;2023-10-09T05:14:44;11.90;99.90
28614;DHT22;15806;53.548;9.964;2023-10-09T05:16:24;11.90;99.90
28614;DHT22;15806;53.548;9.964;2023-10-09T05:18:05;11.90;99.90
28614;DHT22;15806;53.548;9.964;2023-10-09T05:19:45;11.90;99.90
28614;DHT22;15806;53.548;9.964;2023-10-09T05:21:34;11.90;99.90
28614;DHT22;15806;53.548;9.964;2023-10-09T05:23:15;11.90;99.90
28614;DHT22;15806;53.548;9.964;2023-10-09T05:24:58;11.70;99.90
28614;DHT22;15806;53.548;9.964;2023-10-09T05:26:41;11.70;99.90
28614;DHT22;15806;53.548;9.964;2023-10-09T05:28:22;11.80;99.90
28614;DHT22;15806;53.548;9.964;2023-10-09T05:30:03;11.70;99.90
28614;DHT22;15806;53.548;9.964;2023-10-09T05:31:44;11.80;99.90
28614;DHT22;15806;53.548;9.964;2023-10-09T05:33:24;11.80;99.90
28614;DHT22;15806;53.548;9.964;2023-10-09T05:35:05;11.90;99.90
28614;DHT22;15806;53.548;9.964;2023-10-09T05:36:46;11.90;99.90
28614;DHT22;15806;53.548;9.964;2023-10-09T05:38:26;11.90;99.90
28614;DHT22;15806;53.548;9.964;2023-10-09T05:40:07;12.00;99.90
28614;DHT22;15806;53.548;9.964;2023-10-09T05:41:47;11.90;99.90
28614;DHT22;15806;53.548;9.964;2023-10-09T05:43:28;11.90;99.90
28614;DHT22;15806;53.548;9.964;2023-10-09T05:45:13;11.90;99.90
28614;DHT22;15806;53.548;9.964;2023-10-09T05:46:54;12.10;99.90
28614;DHT22;15806;53.548;9.964;2023-10-09T05:48:34;12.00;99.90
28614;DHT22;15806;53.548;9.964;2023-10-09T05:50:15;12.00;99.90
28614;DHT22;15806;53.548;9.964;2023-10-09T05:51:55;12.10;99.90
28614;DHT22;15806;53.548;9.964;2023-10-09T05:53:36;12.10;99.90
28614;DHT22;15806;53.548;9.964;2023-10-09T05:55:17;12.10;99.90
28614;DHT22;15806;53.548;9.964;2023-10-09T05:56:57;12.20;99.90
28614;DHT22;15806;53.548;9.964;2023-10-09T05:58:38;12.20;99.90
28614;DHT22;15806;53.548;9.964;2023-10-09T06:00:19;12.20;99.90
28614;DHT22;15806;53.548;9.964;2023-10-09T06:01:59;12.40;99.90
28614;DHT22;15806;53.548;9.964;2023-10-09T06:03:40;12.60;99.90
28614;DHT22;15806;53.548;9.964;2023-10-09T06:05:20;12.60;99.90
28614;DHT22;15806;53.548;9.964;2023-10-09T06:07:01;12.70;99.90
28614;DHT22;15806;53.548;9.964;2023-10-09T06:08:41;12.80;99.90
28614;DHT22;15806;53.548;9.964;2023-10-09T06:10:22;12.90;99.90
28614;DHT22;15806;53.548;9.964;2023-10-09T06:12:02;13.00;99.90
28614;DHT22;15806;53.548;9.964;2023-10-09T06:13:43;13.00;99.90
28614;DHT22;15806;53.548;9.964;2023-10-09T06:15:23;13.00;99.90
28614;DHT22;15806;53.548;9.964;2023-10-09T06:17:04;13.20;99.90
28614;DHT22;15806;53.548;9.964;2023-10-09T06:18:44;13.00;99.90
28614;DHT22;15806;53.548;9.964;2023-10-09T06:20:25;13.20;99.90
28614;DHT22;15806;53.548;9.964;2023-10-09T06:22:05;13.30;99.90
28614;DHT22;15806;53.548;9.964;2023-10-09T06:23:46;13.40;99.90
28614;DHT22;15806;53.548;9.964;2023-10-09T06:25:26;13.50;99.90
28614;DHT22;15806;53.548;9.964;2023-10-09T06:27:10;13.70;99.90
28614;DHT22;15806;53.548;9.964;2023-10-09T06:28:52;13.60;99.90
28614;DHT22;15806;53.548;9.964;2023-10-09T06:30:34;13.80;99.90
28614;DHT22;15806;53.548;9.964;2023-10-09T06:32:15;13.80;99.90
28614;DHT22;15806;53.548;9.964;2023-10-09T06:33:55;14.00;99.90
28614;DHT22;15806;53.548;9.964;2023-10-09T06:35:36;14.10;99.90
28614;DHT22;15806;53.548;9.964;2023-10-09T06:37:16;14.20;99.90
28614;DHT22;15806;53.548;9.964;2023-10-09T06:38:57;14.30;99.90
28614;DHT22;15806;53.548;9.964;2023-10-09T06:40:38;14.40;99.90
28614;DHT22;15806;53.548;9.964;2023-10-09T06:42:19;14.40;99.90
28614;DHT22;15806;53.548;9.964;2023-10-09T06:43:59;14.30;99.90
28614;DHT22;15806;53.548;9.964;2023-10-09T06:45:40;14.40;99.90
28614;DHT22;15806;53.548;9.964;2023-10-09T06:47:20;14.30;99.90
28614;DHT22;15806;53.548;9.964;2023-10-09T06:49:01;14.50;99.90
28614;DHT22;15806;53.548;9.964;2023-10-09T06:50:41;14.90;99.90
28614;DHT22;15806;53.548;9.964;2023-10-09T06:52:22;15.00;99.90
28614;DHT22;15806;53.548;9.964;2023-10-09T06:54:02;15.10;99.90
28614;DHT22;15806;53.548;9.964;2023-10-09T06:55:43;14.80;99.90
28614;DHT22;15806;53.548;9.964;2023-10-09T06:57:24;15.00;99.90
28614;DHT22;15806;53.548;9.964;2023-10-09T06:59:05;15.20;99.90
28614;DHT22;15806;53.548;9.964;2023-10-09T07:00:46;15.10;99.90
28614;DHT22;15806;53.548;9.964;2023-10-09T07:02:26;15.30;99.90
28614;DHT22;15806;53.548;9.964;2023-10-09T07:04:07;15.30;99.90
28614;DHT22;15806;53.548;9.964;2023-10-09T07:05:48;15.20;99.90
28614;DHT22;15806;53.548;9.964;2023-10-09T07:07:28;15.50;99.90
28614;DHT22;15806;53.548;9.964;2023-10-09T07:09:09;15.50;99.90
28614;DHT22;15806;53.548;9.964;2023-10-09T07:10:49;15.70;99.90
28614;DHT22;15806;53.548;9.964;2023-10-09T07:12:32;15.50;99.90
28614;DHT22;15806;53.548;9.964;2023-10-09T07:14:14;15.80;99.90
28614;DHT22;15806;53.548;9.964;2023-10-09T07:15:55;15.70;99.90
28614;DHT22;15806;53.548;9.964;2023-10-09T07:17:35;15.90;99.90
28614;DHT22;15806;53.548;9.964;2023-10-09T07:19:16;15.80;99.90
28614;DHT22;15806;53.548;9.964;2023-10-09T07:20:56;15.90;99.90
28614;DHT22;15806;53.548;9.964;2023-10-09T07:22:37;16.00;99.90
28614;DHT22;15806;53.548;9.964;2023-10-09T07:24:17;16.20;99.90
28614;DHT22;15806;53.548;9.964;2023-10-09T07:26:04;16.10;99.90
28614;DHT22;15806;53.548;9.964;2023-10-09T07:27:45;16.20;99.90
28614;DHT22;15806;53.548;9.964;2023-10-09T07:29:25;16.30;99.90
28614;DHT22;15806;53.548;9.964;2023-10-09T07:31:06;16.10;99.90
28614;DHT22;15806;53.548;9.964;2023-10-09T07:32:46;16.20;99.90
28614;DHT22;15806;53.548;9.964;2023-10-09T07:34:27;15.90;99.90
28614;DHT22;15806;53.548;9.964;2023-10-09T07:36:07;16.30;99.90
28614;DHT22;15806;53.548;9.964;2023-10-09T07:37:48;16.30;99.90
28614;DHT22;15806;53.548;9.964;2023-10-09T07:39:28;16.30;99.90
28614;DHT22;15806;53.548;9.964;2023-10-09T07:41:09;16.00;99.90
28614;DHT22;15806;53.548;9.964;2023-10-09T07:42:49;16.20;99.90
28614;DHT22;15806;53.548;9.964;2023-10-09T07:44:30;16.60;99.90
28614;DHT22;15806;53.548;9.964;2023-10-09T07:46:12;16.20;99.90
28614;DHT22;15806;53.548;9.964;2023-10-09T07:47:52;16.50;99.90
28614;DHT22;15806;53.548;9.964;2023-10-09T07:49:33;16.60;99.90
28614;DHT22;15806;53.548;9.964;2023-10-09T07:51:14;16.50;99.90
28614;DHT22;15806;53.548;9.964;2023-10-09T07:52:55;16.20;99.90
28614;DHT22;15806;53.548;9.964;2023-10-09T07:54:35;16.40;99.90
28614;DHT22;15806;53.548;9.964;2023-10-09T07:56:16;16.30;99.90
28614;DHT22;15806;53.548;9.964;2023-10-09T07:57:56;16.30;99.90
28614;DHT22;15806;53.548;9.964;2023-10-09T07:59:37;16.40;99.90
28614;DHT22;15806;53.548;9.964;2023-10-09T08:01:17;16.60;99.90
28614;DHT22;15806;53.548;9.964;2023-10-09T08:02:58;16.80;99.90
28614;DHT22;15806;53.548;9.964;2023-10-09T08:04:39;16.60;99.90
28614;DHT22;15806;53.548;9.964;2023-10-09T08:06:19;16.80;99.90
28614;DHT22;15806;53.548;9.964;2023-10-09T08:08:01;16.60;99.90
28614;DHT22;15806;53.548;9.964;2023-10-09T08:09:41;16.80;99.90
28614;DHT22;15806;53.548;9.964;2023-10-09T08:11:22;16.50;99.90
28614;DHT22;15806;53.548;9.964;2023-10-09T08:13:02;16.60;99.90
28614;DHT22;15806;53.548;9.964;2023-10-09T08:14:43;16.80;99.90
28614;DHT22;15806;53.548;9.964;2023-10-09T08:16:24;16.70;99.90
28614;DHT22;15806;53.548;9.964;2023-10-09T08:18:04;16.90;99.90
28614;DHT22;15806;53.548;9.964;2023-10-09T08:19:49;17.20;99.90
28614;DHT22;15806;53.548;9.964;2023-10-09T08:21:30;17.20;99.90
28614;DHT22;15806;53.548;9.964;2023-10-09T08:23:10;17.10;99.90
28614;DHT22;15806;53.548;9.964;2023-10-09T08:24:52;17.20;99.90
28614;DHT22;15806;53.548;9.964;2023-10-09T08:26:32;17.30;99.90
28614;DHT22;15806;53.548;9.964;2023-10-09T08:28:13;17.50;99.90
28614;DHT22;15806;53.548;9.964;2023-10-09T08:29:53;17.60;99.90
28614;DHT22;15806;53.548;9.964;2023-10-09T08:31:34;17.10;99.90
28614;DHT22;15806;53.548;9.964;2023-10-09T08:33:14;17.40;99.90
28614;DHT22;15806;53.548;9.964;2023-10-09T08:34:55;17.40;99.90
28614;DHT22;15806;53.548;9.964;2023-10-09T08:36:36;17.10;99.90
28614;DHT22;15806;53.548;9.964;2023-10-09T08:38:17;17.30;99.90
28614;DHT22;15806;53.548;9.964;2023-10-09T08:39:57;17.50;99.90
28614;DHT22;15806;53.548;9.964;2023-10-09T08:41:38;17.40;99.90
28614;DHT22;15806;53.548;9.964;2023-10-09T08:43:20;17.20;99.90
28614;DHT22;15806;53.548;9.964;2023-10-09T08:45:02;17.20;99.90
28614;DHT22;15806;53.548;9.964;2023-10-09T08:46:44;17.50;99.90
28614;DHT22;15806;53.548;9.964;2023-10-09T08:48:25;17.70;99.90
28614;DHT22;15806;53.548;9.964;2023-10-09T08:50:06;17.40;99.90
28614;DHT22;15806;53.548;9.964;2023-10-09T08:51:47;17.50;99.90
28614;DHT22;15806;53.548;9.964;2023-10-09T08:53:28;17.30;99.90
28614;DHT22;15806;53.548;9.964;2023-10-09T08:55:08;17.40;99.90
28614;DHT22;15806;53.548;9.964;2023-10-09T08:56:49;17.80;99.90
28614;DHT22;15806;53.548;9.964;2023-10-09T08:58:29;17.80;99.90
28614;DHT22;15806;53.548;9.964;2023-10-09T09:00:17;17.70;99.90
28614;DHT22;15806;53.548;9.964;2023-10-09T09:01:57;17.90;99.90
28614;DHT22;15806;53.548;9.964;2023-10-09T09:03:40;17.60;99.90
28614;DHT22;15806;53.548;9.964;2023-10-09T09:05:21;18.00;99.90
28614;DHT22;15806;53.548;9.964;2023-10-09T09:07:02;17.90;99.90
28614;DHT22;15806;53.548;9.964;2023-10-09T09:08:43;17.60;99.90
28614;DHT22;15806;53.548;9.964;2023-10-09T09:10:28;18.00;99.90
28614;DHT22;15806;53.548;9.964;2023-10-09T09:12:13;17.60;99.90
28614;DHT22;15806;53.548;9.964;2023-10-09T09:15:34;17.70;99.90
28614;DHT22;15806;53.548;9.964;2023-10-09T09:17:22;17.90;99.90
28614;DHT22;15806;53.548;9.964;2023-10-09T09:19:07;17.60;99.90
28614;DHT22;15806;53.548;9.964;2023-10-09T09:20:48;18.00;99.90
28614;DHT22;15806;53.548;9.964;2023-10-09T09:22:51;17.90;99.90
28614;DHT22;15806;53.548;9.964;2023-10-09T09:24:32;17.70;99.90
28614;DHT22;15806;53.548;9.964;2023-10-09T09:26:14;18.10;99.90
28614;DHT22;15806;53.548;9.964;2023-10-09T09:27:56;18.00;99.90
28614;DHT22;15806;53.548;9.964;2023-10-09T09:31:17;18.20;99.90
28614;DHT22;15806;53.548;9.964;2023-10-09T09:32:57;18.00;99.90
28614;DHT22;15806;53.548;9.964;2023-10-09T09:34:52;17.80;99.90
28614;DHT22;15806;53.548;9.964;2023-10-09T09:36:34;17.80;99.90
28614;DHT22;15806;53.548;9.964;2023-10-09T09:38:14;18.00;99.90
28614;DHT22;15806;53.548;9.964;2023-10-09T09:40:00;17.90;99.90
28614;DHT22;15806;53.548;9.964;2023-10-09T09:41:41;18.00;99.90
28614;DHT22;15806;53.548;9.964;2023-10-09T09:43:24;18.20;99.90
28614;DHT22;15806;53.548;9.964;2023-10-09T09:45:07;17.90;99.90
28614;DHT22;15806;53.548;9.964;2023-10-09T09:46:51;18.50;99.90
28614;DHT22;15806;53.548;9.964;2023-10-09T09:48:42;18.20;99.90
28614;DHT22;15806;53.548;9.964;2023-10-09T09:50:23;18.30;99.90
28614;DHT22;15806;53.548;9.964;2023-10-09T09:52:06;18.30;99.90
28614;DHT22;15806;53.548;9.964;2023-10-09T09:53:53;18.00;99.90
28614;DHT22;15806;53.548;9.964;2023-10-09T10:00:12;18.10;99.90
28614;DHT22;15806;53.548;9.964;2023-10-09T10:01:56;17.90;99.90
28614;DHT22;15806;53.548;9.964;2023-10-09T10:03:39;18.30;99.90
28614;DHT22;15806;53.548;9.964;2023-10-09T10:05:21;18.10;99.90
28614;DHT22;15806;53.548;9.964;2023-10-09T10:07:05;17.90;99.90
28614;DHT22;15806;53.548;9.964;2023-10-09T10:08:48;17.90;99.90
28614;DHT22;15806;53.548;9.964;2023-10-09T10:10:36;18.10;99.90
28614;DHT22;15806;53.548;9.964;2023-10-09T10:12:49;18.10;99.90
28614;DHT22;15806;53.548;9.964;2023-10-09T10:14:53;18.50;99.90
28614;DHT22;15806;53.548;9.964;2023-10-09T10:17:06;18.50;99.90
28614;DHT22;15806;53.548;9.964;2023-10-09T10:18:59;18.30;99.90
28614;DHT22;15806;53.548;9.964;2023-10-09T10:22:48;18.20;99.90
28614;DHT22;15806;53.548;9.964;2023-10-09T10:26:22;18.60;99.90
28614;DHT22;15806;53.548;9.964;2023-10-09T10:31:59;19.00;99.90
28614;DHT22;15806;53.548;9.964;2023-10-09T10:35:33;19.00;99.90
28614;DHT22;15806;53.548;9.964;2023-10-09T10:37:13;19.00;99.90
28614;DHT22;15806;53.548;9.964;2023-10-09T10:40:44;18.80;99.90
28614;DHT22;15806;53.548;9.964;2023-10-09T10:42:25;19.20;99.90
28614;DHT22;15806;53.548;9.964;2023-10-09T10:44:05;19.20;99.90
28614;DHT22;15806;53.548;9.964;2023-10-09T10:45:46;19.40;99.90
28614;DHT22;15806;53.548;9.964;2023-10-09T10:47:28;19.10;99.90
28614;DHT22;15806;53.548;9.964;2023-10-09T10:49:08;19.00;99.90
28614;DHT22;15806;53.548;9.964;2023-10-09T10:50:56;18.80;99.90
28614;DHT22;15806;53.548;9.964;2023-10-09T10:52:37;18.90;99.90
28614;DHT22;15806;53.548;9.964;2023-10-09T10:54:25;19.20;99.90
28614;DHT22;15806;53.548;9.964;2023-10-09T10:56:05;19.30;99.90
28614;DHT22;15806;53.548;9.964;2023-10-09T10:57:46;19.10;99.90
28614;DHT22;15806;53.548;9.964;2023-10-09T10:59:39;19.10;99.90